sim
Sign-in with your pilot id or email,
or register
Callsign
Passwort

Schedule Details

Flight Number: OEO6673
Departure: Tenerife South Airport (GCTS) at 08:55
Arrival: Munich Airport (EDDM) at 13:45

Weather Information
Getting current METAR information for GCTS 250900Z 10011KT CAVOK 28/16 Q1020 WS R07 NOSIG
Getting current METAR information for EDDM 250920Z 28009KT 250V320 9999 -RA FEW015 BKN048 10/07 Q1002 NOSIG

Schedule Frequency

Route Map